sensor_id;sensor_type;location;lat;lon;timestamp;P1;durP1;ratioP1;P2;durP2;ratioP2
1082;SDS011;530;51.448;7.238;2023-04-05T00:00:41;8.83;;;6.93;;
1082;SDS011;530;51.448;7.238;2023-04-05T00:03:07;8.30;;;6.80;;
1082;SDS011;530;51.448;7.238;2023-04-05T00:05:34;8.37;;;6.40;;
1082;SDS011;530;51.448;7.238;2023-04-05T00:08:01;8.30;;;6.23;;
1082;SDS011;530;51.448;7.238;2023-04-05T00:10:28;8.40;;;6.50;;
1082;SDS011;530;51.448;7.238;2023-04-05T00:12:55;7.40;;;6.70;;
1082;SDS011;530;51.448;7.238;2023-04-05T00:15:24;7.47;;;6.17;;
1082;SDS011;530;51.448;7.238;2023-04-05T00:17:53;9.67;;;6.60;;
1082;SDS011;530;51.448;7.238;2023-04-05T00:20:20;9.43;;;6.50;;
1082;SDS011;530;51.448;7.238;2023-04-05T00:22:45;7.57;;;6.00;;
1082;SDS011;530;51.448;7.238;2023-04-05T00:25:14;9.83;;;6.90;;
1082;SDS011;530;51.448;7.238;2023-04-05T00:27:44;7.20;;;6.47;;
1082;SDS011;530;51.448;7.238;2023-04-05T00:30:10;9.27;;;6.90;;
1082;SDS011;530;51.448;7.238;2023-04-05T00:32:36;8.97;;;6.67;;
1082;SDS011;530;51.448;7.238;2023-04-05T00:35:01;7.17;;;6.20;;
1082;SDS011;530;51.448;7.238;2023-04-05T00:37:27;10.97;;;6.67;;
1082;SDS011;530;51.448;7.238;2023-04-05T00:39:53;7.67;;;6.37;;
1082;SDS011;530;51.448;7.238;2023-04-05T00:42:21;10.47;;;6.47;;
1082;SDS011;530;51.448;7.238;2023-04-05T00:44:47;9.17;;;6.63;;
1082;SDS011;530;51.448;7.238;2023-04-05T00:47:12;9.17;;;7.10;;
1082;SDS011;530;51.448;7.238;2023-04-05T00:49:38;9.10;;;6.67;;
1082;SDS011;530;51.448;7.238;2023-04-05T00:52:05;10.70;;;7.30;;
1082;SDS011;530;51.448;7.238;2023-04-05T00:54:30;8.73;;;7.13;;
1082;SDS011;530;51.448;7.238;2023-04-05T00:56:57;9.60;;;7.00;;
1082;SDS011;530;51.448;7.238;2023-04-05T00:59:24;9.77;;;7.03;;
1082;SDS011;530;51.448;7.238;2023-04-05T01:04:59;9.10;;;7.20;;
1082;SDS011;530;51.448;7.238;2023-04-05T01:10:08;8.10;;;6.80;;
1082;SDS011;530;51.448;7.238;2023-04-05T01:12:36;9.27;;;7.43;;
1082;SDS011;530;51.448;7.238;2023-04-05T01:15:03;8.93;;;7.20;;
1082;SDS011;530;51.448;7.238;2023-04-05T01:17:30;8.50;;;7.30;;
1082;SDS011;530;51.448;7.238;2023-04-05T01:20:02;9.57;;;7.30;;
1082;SDS011;530;51.448;7.238;2023-04-05T01:30:40;8.50;;;7.10;;
1082;SDS011;530;51.448;7.238;2023-04-05T01:38:18;10.80;;;7.77;;
1082;SDS011;530;51.448;7.238;2023-04-05T01:40:49;12.60;;;7.20;;
1082;SDS011;530;51.448;7.238;2023-04-05T01:43:16;9.23;;;7.20;;
1082;SDS011;530;51.448;7.238;2023-04-05T01:45:42;13.23;;;7.00;;
1082;SDS011;530;51.448;7.238;2023-04-05T01:48:09;9.43;;;7.43;;
1082;SDS011;530;51.448;7.238;2023-04-05T01:50:36;11.23;;;6.70;;
1082;SDS011;530;51.448;7.238;2023-04-05T01:53:02;8.80;;;6.90;;
1082;SDS011;530;51.448;7.238;2023-04-05T01:55:27;8.23;;;6.60;;
1082;SDS011;530;51.448;7.238;2023-04-05T01:57:54;8.40;;;6.80;;
1082;SDS011;530;51.448;7.238;2023-04-05T02:00:20;9.73;;;7.27;;
1082;SDS011;530;51.448;7.238;2023-04-05T02:02:47;9.20;;;7.00;;
1082;SDS011;530;51.448;7.238;2023-04-05T02:05:12;10.83;;;8.13;;
1082;SDS011;530;51.448;7.238;2023-04-05T02:07:38;11.40;;;7.50;;
1082;SDS011;530;51.448;7.238;2023-04-05T02:10:04;12.03;;;8.33;;
1082;SDS011;530;51.448;7.238;2023-04-05T02:12:30;11.20;;;7.60;;
1082;SDS011;530;51.448;7.238;2023-04-05T02:14:56;11.10;;;8.33;;
1082;SDS011;530;51.448;7.238;2023-04-05T02:17:22;11.23;;;8.03;;
1082;SDS011;530;51.448;7.238;2023-04-05T02:19:48;12.20;;;8.27;;
1082;SDS011;530;51.448;7.238;2023-04-05T02:22:17;13.63;;;8.40;;
1082;SDS011;530;51.448;7.238;2023-04-05T02:24:43;12.40;;;7.87;;
1082;SDS011;530;51.448;7.238;2023-04-05T02:27:09;12.90;;;8.73;;
1082;SDS011;530;51.448;7.238;2023-04-05T02:29:35;11.57;;;7.70;;
1082;SDS011;530;51.448;7.238;2023-04-05T02:32:01;9.77;;;8.10;;
1082;SDS011;530;51.448;7.238;2023-04-05T02:34:27;9.97;;;7.80;;
1082;SDS011;530;51.448;7.238;2023-04-05T02:36:53;9.37;;;8.30;;
1082;SDS011;530;51.448;7.238;2023-04-05T02:39:18;10.60;;;7.97;;
1082;SDS011;530;51.448;7.238;2023-04-05T02:41:44;12.17;;;7.77;;
1082;SDS011;530;51.448;7.238;2023-04-05T02:44:11;9.53;;;7.83;;
1082;SDS011;530;51.448;7.238;2023-04-05T02:46:37;10.47;;;7.97;;
1082;SDS011;530;51.448;7.238;2023-04-05T02:49:02;9.90;;;6.83;;
1082;SDS011;530;51.448;7.238;2023-04-05T02:51:28;8.73;;;7.70;;
1082;SDS011;530;51.448;7.238;2023-04-05T02:53:54;12.60;;;8.53;;
1082;SDS011;530;51.448;7.238;2023-04-05T02:56:20;9.70;;;7.23;;
1082;SDS011;530;51.448;7.238;2023-04-05T02:58:46;11.97;;;8.13;;
1082;SDS011;530;51.448;7.238;2023-04-05T03:01:13;11.00;;;8.73;;
1082;SDS011;530;51.448;7.238;2023-04-05T03:03:42;9.53;;;7.73;;
1082;SDS011;530;51.448;7.238;2023-04-05T03:06:08;13.10;;;9.63;;
1082;SDS011;530;51.448;7.238;2023-04-05T03:08:37;14.97;;;9.47;;
1082;SDS011;530;51.448;7.238;2023-04-05T03:11:08;12.47;;;9.20;;
1082;SDS011;530;51.448;7.238;2023-04-05T03:13:35;11.70;;;8.97;;
1082;SDS011;530;51.448;7.238;2023-04-05T03:16:01;10.73;;;8.80;;
1082;SDS011;530;51.448;7.238;2023-04-05T03:18:27;13.90;;;10.27;;
1082;SDS011;530;51.448;7.238;2023-04-05T03:20:54;14.10;;;9.97;;
1082;SDS011;530;51.448;7.238;2023-04-05T03:23:21;11.30;;;8.20;;
1082;SDS011;530;51.448;7.238;2023-04-05T03:26:00;12.87;;;10.37;;
1082;SDS011;530;51.448;7.238;2023-04-05T03:28:27;12.80;;;8.97;;
1082;SDS011;530;51.448;7.238;2023-04-05T03:30:56;17.03;;;11.17;;
1082;SDS011;530;51.448;7.238;2023-04-05T03:33:22;18.27;;;12.10;;
1082;SDS011;530;51.448;7.238;2023-04-05T03:35:48;17.00;;;11.87;;
1082;SDS011;530;51.448;7.238;2023-04-05T03:38:13;17.97;;;12.10;;
1082;SDS011;530;51.448;7.238;2023-04-05T03:40:40;19.17;;;12.27;;
1082;SDS011;530;51.448;7.238;2023-04-05T03:43:06;17.37;;;11.67;;
1082;SDS011;530;51.448;7.238;2023-04-05T03:45:31;14.97;;;11.30;;
1082;SDS011;530;51.448;7.238;2023-04-05T03:47:58;16.40;;;10.70;;
1082;SDS011;530;51.448;7.238;2023-04-05T03:50:24;12.87;;;9.57;;
1082;SDS011;530;51.448;7.238;2023-04-05T03:52:53;14.93;;;10.87;;
1082;SDS011;530;51.448;7.238;2023-04-05T03:55:18;15.70;;;10.07;;
1082;SDS011;530;51.448;7.238;2023-04-05T03:57:44;12.20;;;9.63;;
1082;SDS011;530;51.448;7.238;2023-04-05T04:00:11;12.80;;;9.30;;
1082;SDS011;530;51.448;7.238;2023-04-05T04:02:47;11.13;;;9.00;;
1082;SDS011;530;51.448;7.238;2023-04-05T04:05:14;12.40;;;9.80;;
1082;SDS011;530;51.448;7.238;2023-04-05T04:07:41;12.33;;;9.63;;
1082;SDS011;530;51.448;7.238;2023-04-05T04:10:08;16.23;;;10.43;;
1082;SDS011;530;51.448;7.238;2023-04-05T04:12:35;14.83;;;10.37;;
1082;SDS011;530;51.448;7.238;2023-04-05T04:15:02;14.10;;;9.90;;
1082;SDS011;530;51.448;7.238;2023-04-05T04:17:28;17.97;;;12.27;;
1082;SDS011;530;51.448;7.238;2023-04-05T04:19:56;19.03;;;11.20;;
1082;SDS011;530;51.448;7.238;2023-04-05T04:22:22;17.90;;;11.73;;
1082;SDS011;530;51.448;7.238;2023-04-05T04:24:51;19.13;;;11.93;;
1082;SDS011;530;51.448;7.238;2023-04-05T04:27:17;15.17;;;11.40;;
1082;SDS011;530;51.448;7.238;2023-04-05T04:29:45;19.03;;;11.93;;
1082;SDS011;530;51.448;7.238;2023-04-05T04:32:12;17.40;;;12.13;;
1082;SDS011;530;51.448;7.238;2023-04-05T04:34:39;15.70;;;11.47;;
1082;SDS011;530;51.448;7.238;2023-04-05T04:37:14;20.17;;;12.73;;
1082;SDS011;530;51.448;7.238;2023-04-05T04:39:46;20.23;;;12.37;;
1082;SDS011;530;51.448;7.238;2023-04-05T04:42:13;20.17;;;12.40;;
1082;SDS011;530;51.448;7.238;2023-04-05T04:44:47;20.60;;;13.17;;
1082;SDS011;530;51.448;7.238;2023-04-05T04:47:13;23.33;;;14.53;;
1082;SDS011;530;51.448;7.238;2023-04-05T04:49:41;18.90;;;12.70;;
1082;SDS011;530;51.448;7.238;2023-04-05T04:52:07;19.87;;;12.20;;
1082;SDS011;530;51.448;7.238;2023-04-05T04:54:34;23.40;;;14.00;;
1082;SDS011;530;51.448;7.238;2023-04-05T04:57:00;23.63;;;13.40;;
1082;SDS011;530;51.448;7.238;2023-04-05T04:59:31;26.07;;;15.17;;
1082;SDS011;530;51.448;7.238;2023-04-05T05:01:57;23.57;;;15.07;;
1082;SDS011;530;51.448;7.238;2023-04-05T05:04:22;21.37;;;13.67;;
1082;SDS011;530;51.448;7.238;2023-04-05T05:06:52;23.77;;;15.30;;
1082;SDS011;530;51.448;7.238;2023-04-05T05:09:18;21.50;;;13.87;;
1082;SDS011;530;51.448;7.238;2023-04-05T05:11:43;23.83;;;15.70;;
1082;SDS011;530;51.448;7.238;2023-04-05T05:14:09;25.33;;;16.00;;
1082;SDS011;530;51.448;7.238;2023-04-05T05:16:35;30.53;;;16.77;;
1082;SDS011;530;51.448;7.238;2023-04-05T05:19:01;30.23;;;16.60;;
1082;SDS011;530;51.448;7.238;2023-04-05T05:21:26;24.93;;;15.07;;
1082;SDS011;530;51.448;7.238;2023-04-05T05:23:52;24.37;;;15.00;;
1082;SDS011;530;51.448;7.238;2023-04-05T05:26:17;24.47;;;15.90;;
1082;SDS011;530;51.448;7.238;2023-04-05T05:28:43;25.43;;;15.93;;
1082;SDS011;530;51.448;7.238;2023-04-05T05:31:10;30.80;;;17.80;;
1082;SDS011;530;51.448;7.238;2023-04-05T05:33:36;23.90;;;15.60;;
1082;SDS011;530;51.448;7.238;2023-04-05T05:36:01;23.00;;;14.83;;
1082;SDS011;530;51.448;7.238;2023-04-05T05:38:28;28.50;;;16.50;;
1082;SDS011;530;51.448;7.238;2023-04-05T05:40:54;26.07;;;16.00;;
1082;SDS011;530;51.448;7.238;2023-04-05T05:43:21;26.10;;;15.87;;
1082;SDS011;530;51.448;7.238;2023-04-05T05:45:46;23.80;;;15.27;;
1082;SDS011;530;51.448;7.238;2023-04-05T05:48:12;28.13;;;15.57;;
1082;SDS011;530;51.448;7.238;2023-04-05T05:50:38;23.30;;;14.80;;
1082;SDS011;530;51.448;7.238;2023-04-05T05:53:04;23.73;;;15.27;;
1082;SDS011;530;51.448;7.238;2023-04-05T05:55:30;21.30;;;12.97;;
1082;SDS011;530;51.448;7.238;2023-04-05T05:57:56;24.30;;;13.60;;
1082;SDS011;530;51.448;7.238;2023-04-05T06:00:21;20.40;;;12.20;;
1082;SDS011;530;51.448;7.238;2023-04-05T06:02:47;16.97;;;10.33;;
1082;SDS011;530;51.448;7.238;2023-04-05T06:05:13;15.87;;;9.90;;
1082;SDS011;530;51.448;7.238;2023-04-05T06:07:39;16.63;;;11.63;;
1082;SDS011;530;51.448;7.238;2023-04-05T06:10:05;14.70;;;10.00;;
1082;SDS011;530;51.448;7.238;2023-04-05T06:12:32;13.30;;;9.27;;
1082;SDS011;530;51.448;7.238;2023-04-05T06:14:59;18.07;;;10.50;;
1082;SDS011;530;51.448;7.238;2023-04-05T06:17:25;11.50;;;8.50;;
1082;SDS011;530;51.448;7.238;2023-04-05T06:19:51;13.13;;;9.77;;
1082;SDS011;530;51.448;7.238;2023-04-05T06:22:16;14.03;;;8.60;;
1082;SDS011;530;51.448;7.238;2023-04-05T06:24:42;14.80;;;8.93;;
1082;SDS011;530;51.448;7.238;2023-04-05T06:27:08;9.67;;;7.57;;
1082;SDS011;530;51.448;7.238;2023-04-05T06:29:34;9.77;;;7.83;;
1082;SDS011;530;51.448;7.238;2023-04-05T06:31:59;10.90;;;7.43;;
1082;SDS011;530;51.448;7.238;2023-04-05T06:34:25;15.13;;;8.17;;
1082;SDS011;530;51.448;7.238;2023-04-05T06:36:51;8.70;;;6.67;;
1082;SDS011;530;51.448;7.238;2023-04-05T06:39:17;11.60;;;7.27;;
1082;SDS011;530;51.448;7.238;2023-04-05T06:41:43;11.57;;;6.30;;
1082;SDS011;530;51.448;7.238;2023-04-05T06:44:09;7.00;;;6.30;;
1082;SDS011;530;51.448;7.238;2023-04-05T06:46:35;9.60;;;6.00;;
1082;SDS011;530;51.448;7.238;2023-04-05T06:49:00;7.47;;;6.63;;
1082;SDS011;530;51.448;7.238;2023-04-05T06:51:26;8.57;;;6.70;;
1082;SDS011;530;51.448;7.238;2023-04-05T06:53:53;6.83;;;5.93;;
1082;SDS011;530;51.448;7.238;2023-04-05T06:56:19;11.33;;;7.23;;
1082;SDS011;530;51.448;7.238;2023-04-05T06:58:45;8.80;;;7.00;;
1082;SDS011;530;51.448;7.238;2023-04-05T07:01:11;9.43;;;6.90;;
1082;SDS011;530;51.448;7.238;2023-04-05T07:03:37;8.50;;;6.97;;
1082;SDS011;530;51.448;7.238;2023-04-05T07:06:03;7.97;;;6.80;;
1082;SDS011;530;51.448;7.238;2023-04-05T07:08:30;12.00;;;7.07;;
1082;SDS011;530;51.448;7.238;2023-04-05T07:10:57;9.60;;;6.67;;
1082;SDS011;530;51.448;7.238;2023-04-05T07:13:23;7.63;;;6.30;;
1082;SDS011;530;51.448;7.238;2023-04-05T07:15:49;7.13;;;6.30;;
1082;SDS011;530;51.448;7.238;2023-04-05T07:18:16;8.47;;;6.50;;
1082;SDS011;530;51.448;7.238;2023-04-05T07:20:45;8.37;;;6.43;;
1082;SDS011;530;51.448;7.238;2023-04-05T07:23:11;8.57;;;6.37;;
1082;SDS011;530;51.448;7.238;2023-04-05T07:25:38;6.20;;;5.50;;
1082;SDS011;530;51.448;7.238;2023-04-05T07:28:05;7.97;;;5.77;;
1082;SDS011;530;51.448;7.238;2023-04-05T07:30:30;6.90;;;6.20;;
1082;SDS011;530;51.448;7.238;2023-04-05T07:32:56;6.60;;;5.83;;
1082;SDS011;530;51.448;7.238;2023-04-05T07:35:22;7.67;;;6.10;;
1082;SDS011;530;51.448;7.238;2023-04-05T07:37:48;8.13;;;5.83;;
1082;SDS011;530;51.448;7.238;2023-04-05T07:40:14;6.00;;;5.40;;
1082;SDS011;530;51.448;7.238;2023-04-05T07:42:40;7.50;;;5.20;;
1082;SDS011;530;51.448;7.238;2023-04-05T07:45:06;9.60;;;5.97;;
1082;SDS011;530;51.448;7.238;2023-04-05T07:47:32;6.80;;;5.77;;
1082;SDS011;530;51.448;7.238;2023-04-05T07:49:59;8.50;;;5.67;;
1082;SDS011;530;51.448;7.238;2023-04-05T07:52:25;7.40;;;5.77;;
1082;SDS011;530;51.448;7.238;2023-04-05T07:54:51;8.33;;;6.10;;
1082;SDS011;530;51.448;7.238;2023-04-05T07:57:19;6.47;;;5.70;;
1082;SDS011;530;51.448;7.238;2023-04-05T07:59:46;6.97;;;6.27;;
1082;SDS011;530;51.448;7.238;2023-04-05T08:02:15;5.90;;;5.20;;
1082;SDS011;530;51.448;7.238;2023-04-05T08:04:41;6.47;;;5.77;;
1082;SDS011;530;51.448;7.238;2023-04-05T08:07:06;6.53;;;5.87;;
1082;SDS011;530;51.448;7.238;2023-04-05T08:09:32;6.27;;;5.53;;
1082;SDS011;530;51.448;7.238;2023-04-05T08:11:58;6.67;;;5.97;;
1082;SDS011;530;51.448;7.238;2023-04-05T08:14:25;6.80;;;5.97;;
1082;SDS011;530;51.448;7.238;2023-04-05T08:16:51;6.33;;;5.67;;
1082;SDS011;530;51.448;7.238;2023-04-05T08:19:16;6.57;;;5.73;;
1082;SDS011;530;51.448;7.238;2023-04-05T08:21:42;6.60;;;5.63;;
1082;SDS011;530;51.448;7.238;2023-04-05T08:24:08;7.53;;;6.40;;
1082;SDS011;530;51.448;7.238;2023-04-05T08:26:33;10.10;;;6.27;;
1082;SDS011;530;51.448;7.238;2023-04-05T08:28:59;6.60;;;5.60;;
1082;SDS011;530;51.448;7.238;2023-04-05T08:31:25;8.67;;;6.20;;
1082;SDS011;530;51.448;7.238;2023-04-05T08:33:50;6.70;;;5.70;;
1082;SDS011;530;51.448;7.238;2023-04-05T08:36:16;8.60;;;5.67;;
1082;SDS011;530;51.448;7.238;2023-04-05T08:38:42;6.20;;;5.60;;
1082;SDS011;530;51.448;7.238;2023-04-05T08:41:13;6.23;;;5.47;;
1082;SDS011;530;51.448;7.238;2023-04-05T08:46:09;7.50;;;6.43;;
1082;SDS011;530;51.448;7.238;2023-04-05T08:48:40;7.23;;;5.43;;
1082;SDS011;530;51.448;7.238;2023-04-05T08:51:06;6.40;;;5.80;;
1082;SDS011;530;51.448;7.238;2023-04-05T08:53:33;7.30;;;5.83;;
1082;SDS011;530;51.448;7.238;2023-04-05T08:55:59;7.73;;;5.80;;
1082;SDS011;530;51.448;7.238;2023-04-05T08:58:26;6.67;;;5.63;;
1082;SDS011;530;51.448;7.238;2023-04-05T09:00:52;5.67;;;5.13;;
1082;SDS011;530;51.448;7.238;2023-04-05T09:03:22;8.10;;;5.90;;
1082;SDS011;530;51.448;7.238;2023-04-05T09:05:50;6.03;;;5.47;;
1082;SDS011;530;51.448;7.238;2023-04-05T09:08:16;6.63;;;5.63;;
1082;SDS011;530;51.448;7.238;2023-04-05T09:10:43;8.67;;;5.97;;
1082;SDS011;530;51.448;7.238;2023-04-05T09:13:09;7.40;;;5.67;;
1082;SDS011;530;51.448;7.238;2023-04-05T09:15:38;5.90;;;5.30;;
1082;SDS011;530;51.448;7.238;2023-04-05T09:18:05;5.53;;;5.03;;
1082;SDS011;530;51.448;7.238;2023-04-05T09:20:30;9.30;;;6.30;;
1082;SDS011;530;51.448;7.238;2023-04-05T09:22:56;7.40;;;5.67;;
1082;SDS011;530;51.448;7.238;2023-04-05T09:28:00;6.27;;;4.90;;
1082;SDS011;530;51.448;7.238;2023-04-05T09:30:27;7.33;;;5.57;;
1082;SDS011;530;51.448;7.238;2023-04-05T09:32:55;6.67;;;5.97;;
1082;SDS011;530;51.448;7.238;2023-04-05T09:35:22;9.40;;;6.50;;
1082;SDS011;530;51.448;7.238;2023-04-05T09:37:50;6.70;;;5.07;;
1082;SDS011;530;51.448;7.238;2023-04-05T09:40:19;7.20;;;6.00;;
1082;SDS011;530;51.448;7.238;2023-04-05T09:42:45;8.63;;;6.07;;
1082;SDS011;530;51.448;7.238;2023-04-05T09:45:11;6.20;;;5.40;;
1082;SDS011;530;51.448;7.238;2023-04-05T09:47:38;6.73;;;5.80;;
1082;SDS011;530;51.448;7.238;2023-04-05T09:52:40;6.73;;;5.80;;
1082;SDS011;530;51.448;7.238;2023-04-05T09:55:07;7.10;;;6.40;;
1082;SDS011;530;51.448;7.238;2023-04-05T09:57:33;10.13;;;7.67;;
1082;SDS011;530;51.448;7.238;2023-04-05T10:00:04;8.77;;;5.90;;
1082;SDS011;530;51.448;7.238;2023-04-05T10:02:38;9.23;;;6.70;;
1082;SDS011;530;51.448;7.238;2023-04-05T10:05:04;6.63;;;5.10;;
1082;SDS011;530;51.448;7.238;2023-04-05T10:07:43;6.30;;;5.60;;
1082;SDS011;530;51.448;7.238;2023-04-05T10:10:09;8.63;;;6.20;;
1082;SDS011;530;51.448;7.238;2023-04-05T10:12:38;8.07;;;5.53;;
1082;SDS011;530;51.448;7.238;2023-04-05T10:15:05;6.50;;;5.90;;
1082;SDS011;530;51.448;7.238;2023-04-05T10:20:17;7.40;;;5.87;;
1082;SDS011;530;51.448;7.238;2023-04-05T10:27:54;8.23;;;6.33;;
1082;SDS011;530;51.448;7.238;2023-04-05T10:30:28;9.40;;;5.80;;
1082;SDS011;530;51.448;7.238;2023-04-05T10:33:20;8.43;;;6.47;;
1082;SDS011;530;51.448;7.238;2023-04-05T10:35:59;6.47;;;5.87;;
1082;SDS011;530;51.448;7.238;2023-04-05T10:39:41;7.20;;;6.27;;
1082;SDS011;530;51.448;7.238;2023-04-05T10:41:46;7.10;;;6.00;;
1082;SDS011;530;51.448;7.238;2023-04-05T10:44:14;7.17;;;5.90;;
1082;SDS011;530;51.448;7.238;2023-04-05T10:46:40;8.33;;;6.67;;
1082;SDS011;530;51.448;7.238;2023-04-05T10:51:51;9.03;;;6.00;;
1082;SDS011;530;51.448;7.238;2023-04-05T10:54:18;8.73;;;6.20;;
1082;SDS011;530;51.448;7.238;2023-04-05T10:56:45;6.93;;;6.23;;
1082;SDS011;530;51.448;7.238;2023-04-05T10:59:11;6.83;;;6.00;;
1082;SDS011;530;51.448;7.238;2023-04-05T11:01:38;8.57;;;6.53;;
1082;SDS011;530;51.448;7.238;2023-04-05T11:04:14;6.87;;;5.77;;
1082;SDS011;530;51.448;7.238;2023-04-05T11:06:40;7.37;;;6.33;;
1082;SDS011;530;51.448;7.238;2023-04-05T11:09:10;12.23;;;6.73;;
1082;SDS011;530;51.448;7.238;2023-04-05T11:16:44;7.23;;;6.53;;
1082;SDS011;530;51.448;7.238;2023-04-05T11:19:18;8.93;;;6.80;;
1082;SDS011;530;51.448;7.238;2023-04-05T11:21:44;7.23;;;6.57;;
1082;SDS011;530;51.448;7.238;2023-04-05T11:24:11;11.80;;;7.30;;
1082;SDS011;530;51.448;7.238;2023-04-05T11:29:08;8.20;;;6.90;;
1082;SDS011;530;51.448;7.238;2023-04-05T11:31:35;9.30;;;7.00;;
1082;SDS011;530;51.448;7.238;2023-04-05T11:34:22;10.07;;;7.83;;
1082;SDS011;530;51.448;7.238;2023-04-05T11:36:48;8.00;;;7.03;;
1082;SDS011;530;51.448;7.238;2023-04-05T11:41:43;9.97;;;7.10;;
1082;SDS011;530;51.448;7.238;2023-04-05T11:44:14;8.30;;;7.20;;
1082;SDS011;530;51.448;7.238;2023-04-05T11:46:46;7.13;;;6.47;;
1082;SDS011;530;51.448;7.238;2023-04-05T11:49:12;8.40;;;6.70;;
1082;SDS011;530;51.448;7.238;2023-04-05T11:51:42;8.13;;;6.90;;
1082;SDS011;530;51.448;7.238;2023-04-05T11:54:10;8.10;;;6.63;;
1082;SDS011;530;51.448;7.238;2023-04-05T11:56:36;9.43;;;6.63;;
1082;SDS011;530;51.448;7.238;2023-04-05T11:59:02;8.87;;;6.90;;
1082;SDS011;530;51.448;7.238;2023-04-05T12:01:28;9.43;;;6.87;;
1082;SDS011;530;51.448;7.238;2023-04-05T12:03:54;7.63;;;6.80;;
1082;SDS011;530;51.448;7.238;2023-04-05T12:06:21;7.50;;;6.60;;
1082;SDS011;530;51.448;7.238;2023-04-05T12:08:48;7.13;;;6.43;;
1082;SDS011;530;51.448;7.238;2023-04-05T12:11:15;8.90;;;6.50;;
1082;SDS011;530;51.448;7.238;2023-04-05T12:13:41;8.13;;;7.13;;
1082;SDS011;530;51.448;7.238;2023-04-05T12:16:09;8.43;;;7.20;;
1082;SDS011;530;51.448;7.238;2023-04-05T12:18:35;9.40;;;7.07;;
1082;SDS011;530;51.448;7.238;2023-04-05T12:21:08;9.87;;;7.40;;
1082;SDS011;530;51.448;7.238;2023-04-05T12:23:34;7.40;;;6.60;;
1082;SDS011;530;51.448;7.238;2023-04-05T12:26:01;8.00;;;7.20;;
1082;SDS011;530;51.448;7.238;2023-04-05T12:34:05;8.27;;;6.87;;
1082;SDS011;530;51.448;7.238;2023-04-05T12:36:32;7.67;;;6.87;;
1082;SDS011;530;51.448;7.238;2023-04-05T12:38:58;8.90;;;6.53;;
1082;SDS011;530;51.448;7.238;2023-04-05T12:41:30;8.07;;;7.27;;
1082;SDS011;530;51.448;7.238;2023-04-05T12:43:56;7.60;;;6.23;;
1082;SDS011;530;51.448;7.238;2023-04-05T12:46:38;8.40;;;6.97;;
1082;SDS011;530;51.448;7.238;2023-04-05T12:49:10;7.63;;;6.47;;
1082;SDS011;530;51.448;7.238;2023-04-05T12:51:36;8.23;;;6.47;;
1082;SDS011;530;51.448;7.238;2023-04-05T12:54:10;6.93;;;6.33;;
1082;SDS011;530;51.448;7.238;2023-04-05T12:56:37;7.53;;;6.73;;
1082;SDS011;530;51.448;7.238;2023-04-05T12:59:04;10.40;;;6.23;;
1082;SDS011;530;51.448;7.238;2023-04-05T13:01:31;6.57;;;5.63;;
1082;SDS011;530;51.448;7.238;2023-04-05T13:04:00;6.93;;;6.23;;
1082;SDS011;530;51.448;7.238;2023-04-05T13:06:26;7.87;;;6.67;;
1082;SDS011;530;51.448;7.238;2023-04-05T13:08:52;7.50;;;5.60;;
1082;SDS011;530;51.448;7.238;2023-04-05T13:11:18;6.60;;;5.90;;
1082;SDS011;530;51.448;7.238;2023-04-05T13:13:43;6.50;;;5.90;;
1082;SDS011;530;51.448;7.238;2023-04-05T13:16:09;8.93;;;6.00;;
1082;SDS011;530;51.448;7.238;2023-04-05T13:18:35;9.63;;;6.87;;
1082;SDS011;530;51.448;7.238;2023-04-05T13:21:01;7.37;;;5.90;;
1082;SDS011;530;51.448;7.238;2023-04-05T13:23:31;7.13;;;5.67;;
1082;SDS011;530;51.448;7.238;2023-04-05T13:25:57;8.43;;;6.40;;
1082;SDS011;530;51.448;7.238;2023-04-05T13:28:23;8.30;;;6.87;;
1082;SDS011;530;51.448;7.238;2023-04-05T13:30:50;8.20;;;5.63;;
1082;SDS011;530;51.448;7.238;2023-04-05T13:33:16;7.90;;;6.77;;
1082;SDS011;530;51.448;7.238;2023-04-05T13:35:42;8.23;;;7.43;;
1082;SDS011;530;51.448;7.238;2023-04-05T13:38:08;8.77;;;6.00;;
1082;SDS011;530;51.448;7.238;2023-04-05T13:40:33;6.67;;;6.00;;
1082;SDS011;530;51.448;7.238;2023-04-05T13:42:59;8.80;;;7.40;;
1082;SDS011;530;51.448;7.238;2023-04-05T13:45:25;7.73;;;6.77;;
1082;SDS011;530;51.448;7.238;2023-04-05T13:47:52;8.20;;;6.60;;
1082;SDS011;530;51.448;7.238;2023-04-05T13:50:18;7.47;;;6.70;;
1082;SDS011;530;51.448;7.238;2023-04-05T13:52:44;7.30;;;6.60;;
1082;SDS011;530;51.448;7.238;2023-04-05T13:55:10;7.17;;;5.50;;
1082;SDS011;530;51.448;7.238;2023-04-05T13:57:35;7.20;;;5.77;;
1082;SDS011;530;51.448;7.238;2023-04-05T14:00:01;6.07;;;5.47;;
1082;SDS011;530;51.448;7.238;2023-04-05T14:02:27;7.20;;;6.23;;
1082;SDS011;530;51.448;7.238;2023-04-05T14:04:53;7.83;;;6.07;;
1082;SDS011;530;51.448;7.238;2023-04-05T14:07:19;6.50;;;5.80;;
1082;SDS011;530;51.448;7.238;2023-04-05T14:09:45;6.90;;;5.57;;
1082;SDS011;530;51.448;7.238;2023-04-05T14:12:11;8.70;;;6.40;;
1082;SDS011;530;51.448;7.238;2023-04-05T14:14:37;9.50;;;6.20;;
1082;SDS011;530;51.448;7.238;2023-04-05T14:17:03;6.10;;;5.50;;
1082;SDS011;530;51.448;7.238;2023-04-05T14:19:28;6.47;;;5.87;;
1082;SDS011;530;51.448;7.238;2023-04-05T14:21:55;6.90;;;6.20;;
1082;SDS011;530;51.448;7.238;2023-04-05T14:24:21;8.07;;;6.30;;
1082;SDS011;530;51.448;7.238;2023-04-05T14:26:46;7.17;;;6.20;;
1082;SDS011;530;51.448;7.238;2023-04-05T14:29:14;7.60;;;5.83;;
1082;SDS011;530;51.448;7.238;2023-04-05T14:31:40;7.20;;;6.37;;
1082;SDS011;530;51.448;7.238;2023-04-05T14:34:06;7.03;;;6.30;;
1082;SDS011;530;51.448;7.238;2023-04-05T14:36:32;8.90;;;6.10;;
1082;SDS011;530;51.448;7.238;2023-04-05T14:38:58;7.23;;;6.53;;
1082;SDS011;530;51.448;7.238;2023-04-05T14:41:23;8.13;;;6.80;;
1082;SDS011;530;51.448;7.238;2023-04-05T14:43:51;6.97;;;5.80;;
1082;SDS011;530;51.448;7.238;2023-04-05T14:46:17;10.33;;;6.93;;
1082;SDS011;530;51.448;7.238;2023-04-05T14:48:43;6.87;;;5.63;;
1082;SDS011;530;51.448;7.238;2023-04-05T14:51:09;7.10;;;6.40;;
1082;SDS011;530;51.448;7.238;2023-04-05T14:53:35;6.80;;;6.10;;
1082;SDS011;530;51.448;7.238;2023-04-05T14:56:01;7.00;;;6.27;;
1082;SDS011;530;51.448;7.238;2023-04-05T14:58:27;8.23;;;6.57;;
1082;SDS011;530;51.448;7.238;2023-04-05T15:00:53;7.10;;;6.37;;
1082;SDS011;530;51.448;7.238;2023-04-05T15:03:19;6.10;;;5.53;;
1082;SDS011;530;51.448;7.238;2023-04-05T15:05:46;6.23;;;5.73;;
1082;SDS011;530;51.448;7.238;2023-04-05T15:08:12;8.17;;;6.40;;
1082;SDS011;530;51.448;7.238;2023-04-05T15:10:38;6.27;;;5.67;;
1082;SDS011;530;51.448;7.238;2023-04-05T15:13:06;6.77;;;6.03;;
1082;SDS011;530;51.448;7.238;2023-04-05T15:15:33;7.17;;;6.47;;
1082;SDS011;530;51.448;7.238;2023-04-05T15:17:59;7.70;;;6.80;;
1082;SDS011;530;51.448;7.238;2023-04-05T15:20:25;6.70;;;6.10;;
1082;SDS011;530;51.448;7.238;2023-04-05T15:22:53;9.10;;;6.20;;
1082;SDS011;530;51.448;7.238;2023-04-05T15:25:18;7.00;;;6.30;;
1082;SDS011;530;51.448;7.238;2023-04-05T15:27:44;8.33;;;6.63;;
1082;SDS011;530;51.448;7.238;2023-04-05T15:30:10;10.20;;;6.20;;
1082;SDS011;530;51.448;7.238;2023-04-05T15:32:36;7.87;;;6.13;;
1082;SDS011;530;51.448;7.238;2023-04-05T15:35:02;7.13;;;6.10;;
1082;SDS011;530;51.448;7.238;2023-04-05T15:37:28;8.63;;;6.50;;
1082;SDS011;530;51.448;7.238;2023-04-05T15:39:54;6.90;;;6.00;;
1082;SDS011;530;51.448;7.238;2023-04-05T15:42:20;7.00;;;6.30;;
1082;SDS011;530;51.448;7.238;2023-04-05T15:44:46;6.33;;;5.73;;
1082;SDS011;530;51.448;7.238;2023-04-05T15:47:15;8.20;;;6.50;;
1082;SDS011;530;51.448;7.238;2023-04-05T15:49:41;6.80;;;6.10;;
1082;SDS011;530;51.448;7.238;2023-04-05T15:52:07;9.90;;;6.07;;
1082;SDS011;530;51.448;7.238;2023-04-05T15:54:34;6.53;;;5.90;;
1082;SDS011;530;51.448;7.238;2023-04-05T15:57:00;9.17;;;7.37;;
1082;SDS011;530;51.448;7.238;2023-04-05T15:59:26;7.47;;;6.10;;
1082;SDS011;530;51.448;7.238;2023-04-05T16:01:52;6.40;;;5.80;;
1082;SDS011;530;51.448;7.238;2023-04-05T16:04:18;9.47;;;6.77;;
1082;SDS011;530;51.448;7.238;2023-04-05T16:06:44;7.23;;;6.53;;
1082;SDS011;530;51.448;7.238;2023-04-05T16:09:10;7.03;;;6.33;;
1082;SDS011;530;51.448;7.238;2023-04-05T16:11:35;6.87;;;6.17;;
1082;SDS011;530;51.448;7.238;2023-04-05T16:14:01;6.70;;;6.00;;